createdAt,value
2018-03-20T00:02:18.962Z,81.40
2018-03-20T00:04:45.405Z,81.29
2018-03-20T00:07:11.766Z,80.99
2018-03-20T00:09:38.242Z,80.82
2018-03-20T00:12:04.713Z,81.25
2018-03-20T00:14:31.077Z,82.23
2018-03-20T00:16:57.529Z,81.50
2018-03-20T00:19:23.953Z,81.67
2018-03-20T00:21:50.327Z,82.12
2018-03-20T00:24:16.746Z,81.96
2018-03-20T00:26:43.350Z,80.93
2018-03-20T00:29:09.792Z,80.37
2018-03-20T00:31:36.173Z,80.67
2018-03-20T00:34:02.613Z,81.12
2018-03-20T00:36:29.030Z,80.90
2018-03-20T00:38:55.413Z,80.90
2018-03-20T00:41:21.907Z,81.49
2018-03-20T00:43:48.306Z,81.46
2018-03-20T00:46:14.766Z,82.54
2018-03-20T00:48:41.213Z,82.58
2018-03-20T00:51:07.634Z,83.14
2018-03-20T00:53:34.057Z,82.56
2018-03-20T00:56:00.530Z,81.77
2018-03-20T00:58:27.002Z,81.29
2018-03-20T01:00:53.449Z,81.78
2018-03-20T01:03:19.874Z,83.10
2018-03-20T01:05:46.286Z,82.24
2018-03-20T01:08:12.703Z,81.84
2018-03-20T01:10:39.155Z,83.01
2018-03-20T01:13:05.530Z,81.37
2018-03-20T01:15:31.966Z,80.66
2018-03-20T01:17:58.371Z,80.92
2018-03-20T01:20:24.756Z,82.06
2018-03-20T01:22:51.289Z,81.74
2018-03-20T01:25:17.738Z,81.76
2018-03-20T01:27:44.062Z,81.12
2018-03-20T01:30:10.677Z,81.73
2018-03-20T01:32:37.109Z,81.87
2018-03-20T01:35:03.565Z,82.05
2018-03-20T01:37:30.002Z,81.98
2018-03-20T01:39:56.382Z,82.69
2018-03-20T01:42:22.797Z,82.37
2018-03-20T01:44:49.268Z,82.78
2018-03-20T01:47:15.958Z,83.67
2018-03-20T01:49:42.394Z,82.92
2018-03-20T01:52:08.921Z,82.36
2018-03-20T01:54:35.326Z,83.54
2018-03-20T01:57:01.818Z,83.07
2018-03-20T01:59:28.375Z,82.69
2018-03-20T02:01:54.842Z,82.93
2018-03-20T02:04:21.344Z,82.39
2018-03-20T02:06:47.853Z,81.48
2018-03-20T02:09:14.271Z,82.13
2018-03-20T02:11:40.686Z,82.80
2018-03-20T02:14:07.166Z,83.47
2018-03-20T02:16:33.721Z,82.73
2018-03-20T02:19:00.183Z,83.00
2018-03-20T02:21:26.669Z,82.55
2018-03-20T02:23:53.117Z,82.80
2018-03-20T02:26:19.522Z,83.23
2018-03-20T02:28:45.935Z,82.29
2018-03-20T02:31:12.328Z,82.98
2018-03-20T02:33:38.811Z,82.50
2018-03-20T02:36:05.219Z,82.28
2018-03-20T02:38:31.697Z,83.69
2018-03-20T02:40:58.125Z,84.04
2018-03-20T02:43:24.591Z,82.88
2018-03-20T02:45:50.994Z,83.41
2018-03-20T02:48:17.403Z,82.47
2018-03-20T02:50:43.854Z,82.71
2018-03-20T02:53:10.307Z,81.83
2018-03-20T02:55:36.716Z,83.16
2018-03-20T02:58:03.262Z,82.31
2018-03-20T03:00:29.661Z,82.19
2018-03-20T03:02:56.038Z,83.66
2018-03-20T03:05:22.501Z,82.43
2018-03-20T03:07:48.897Z,83.35
2018-03-20T03:10:15.329Z,82.26
2018-03-20T03:12:41.785Z,82.61
2018-03-20T03:15:08.217Z,82.53
2018-03-20T03:17:34.602Z,83.67
2018-03-20T03:20:01.061Z,83.93
2018-03-20T03:22:27.497Z,82.99
2018-03-20T03:24:53.964Z,83.30
2018-03-20T03:27:20.383Z,83.99
2018-03-20T03:29:46.820Z,82.43
2018-03-20T03:32:13.230Z,82.27
2018-03-20T03:34:39.717Z,83.24
2018-03-20T03:37:06.158Z,83.45
2018-03-20T03:39:32.571Z,81.88
2018-03-20T03:41:58.970Z,82.23
2018-03-20T03:44:25.347Z,82.87
2018-03-20T03:46:51.722Z,83.49
2018-03-20T03:49:18.326Z,82.12
2018-03-20T03:51:44.740Z,83.44
2018-03-20T03:54:11.156Z,82.75
2018-03-20T03:56:37.607Z,82.19
2018-03-20T03:59:04.073Z,82.87
2018-03-20T04:01:30.516Z,82.84
2018-03-20T04:03:57.050Z,83.66
2018-03-20T04:06:23.413Z,82.79
2018-03-20T04:08:49.810Z,84.60
2018-03-20T04:11:16.296Z,84.16
2018-03-20T04:13:42.746Z,83.73
2018-03-20T04:16:09.537Z,83.18
2018-03-20T04:18:35.975Z,82.73
2018-03-20T04:21:02.487Z,83.59
2018-03-20T04:23:28.894Z,85.15
2018-03-20T04:25:55.326Z,84.10
2018-03-20T04:28:21.738Z,84.79
2018-03-20T04:30:48.144Z,83.85
2018-03-20T04:33:14.551Z,83.33
2018-03-20T04:35:40.955Z,82.85
2018-03-20T04:38:07.338Z,84.77
2018-03-20T04:40:33.745Z,83.70
2018-03-20T04:43:00.205Z,82.65
2018-03-20T04:45:26.602Z,84.81
2018-03-20T04:47:52.957Z,82.96
2018-03-20T04:50:19.397Z,83.43
2018-03-20T04:52:45.836Z,83.77
2018-03-20T04:55:12.245Z,84.18
2018-03-20T04:57:38.670Z,84.26
2018-03-20T05:00:05.143Z,84.59
2018-03-20T05:02:31.565Z,84.20
2018-03-20T05:04:58.009Z,84.45
2018-03-20T05:07:24.388Z,84.08
2018-03-20T05:09:51.001Z,83.76
2018-03-20T05:12:17.424Z,82.50
2018-03-20T05:14:44.371Z,82.56
2018-03-20T05:17:10.882Z,81.80
2018-03-20T05:19:39.311Z,84.12
2018-03-20T05:22:11.691Z,83.30
2018-03-20T05:24:38.250Z,82.53
2018-03-20T05:27:04.667Z,81.66
2018-03-20T05:29:31.116Z,81.79
2018-03-20T05:31:57.652Z,82.35
2018-03-20T05:34:24.211Z,82.11
2018-03-20T05:36:50.678Z,82.42
2018-03-20T05:39:17.142Z,82.40
2018-03-20T05:41:43.677Z,82.28
2018-03-20T05:44:10.206Z,81.92
2018-03-20T05:46:42.668Z,81.45
2018-03-20T06:02:29.094Z,81.92
2018-03-20T06:04:55.603Z,81.65
2018-03-20T06:07:22.181Z,81.26
2018-03-20T06:09:48.873Z,84.43
2018-03-20T06:12:15.774Z,85.17
2018-03-20T06:14:42.262Z,85.95
2018-03-20T06:17:08.818Z,83.97
2018-03-20T06:19:36.231Z,84.19
2018-03-20T06:22:02.778Z,83.22
2018-03-20T06:24:29.176Z,82.73
2018-03-20T06:26:55.632Z,84.28
2018-03-20T06:29:22.098Z,82.11
2018-03-20T06:31:48.585Z,81.87
2018-03-20T06:34:15.034Z,82.04
2018-03-20T06:36:41.433Z,82.02
2018-03-20T06:39:07.930Z,82.30
2018-03-20T06:41:35.481Z,81.46
2018-03-20T06:44:01.971Z,80.48
2018-03-20T06:46:28.810Z,80.50
2018-03-20T06:48:55.446Z,79.98
2018-03-20T06:51:21.953Z,80.31
2018-03-20T06:53:51.228Z,80.59
2018-03-20T06:56:20.532Z,80.95
2018-03-20T06:58:46.930Z,81.32
2018-03-20T07:01:13.310Z,81.02
2018-03-20T07:03:39.943Z,81.12
2018-03-20T07:06:06.466Z,81.43
2018-03-20T07:08:33.069Z,80.36
2018-03-20T07:10:59.618Z,79.56
2018-03-20T07:13:25.985Z,80.27
2018-03-20T07:15:52.489Z,80.33
2018-03-20T07:18:18.882Z,80.47
2018-03-20T07:20:45.324Z,80.93
2018-03-20T07:23:11.780Z,79.94
2018-03-20T07:25:38.502Z,79.83
2018-03-20T07:28:04.956Z,79.87
2018-03-20T07:30:31.422Z,80.38
2018-03-20T07:32:57.842Z,81.62
2018-03-20T07:35:24.266Z,81.05
2018-03-20T07:37:50.673Z,81.38
2018-03-20T07:40:17.106Z,80.19
2018-03-20T07:42:43.517Z,80.16
2018-03-20T07:45:10.006Z,80.98
2018-03-20T07:47:36.384Z,81.10
2018-03-20T07:50:03.167Z,79.30
2018-03-20T07:52:29.599Z,78.55
2018-03-20T07:54:56.091Z,79.17
2018-03-20T07:57:22.571Z,79.60
2018-03-20T07:59:49.023Z,79.89
2018-03-20T08:02:15.658Z,78.64
2018-03-20T08:04:42.021Z,77.60
2018-03-20T08:07:08.414Z,77.56
2018-03-20T08:09:34.866Z,77.45
2018-03-20T08:12:01.277Z,76.89
2018-03-20T08:14:27.704Z,77.68
2018-03-20T08:16:54.198Z,76.16
2018-03-20T08:19:20.626Z,76.69
2018-03-20T08:21:47.077Z,76.47
2018-03-20T08:24:13.479Z,76.08
2018-03-20T08:26:39.881Z,76.47
2018-03-20T08:29:06.246Z,75.64
2018-03-20T08:31:32.606Z,74.53
2018-03-20T08:33:58.982Z,73.26
2018-03-20T08:36:25.382Z,74.74
2018-03-20T08:38:52.487Z,75.55
2018-03-20T08:41:19.001Z,75.59
2018-03-20T08:43:45.546Z,74.94
2018-03-20T08:46:11.923Z,71.92
2018-03-20T08:48:38.361Z,72.55
2018-03-20T08:51:04.814Z,71.70
2018-03-20T08:53:31.241Z,73.12
2018-03-20T08:55:57.605Z,74.25
2018-03-20T08:58:24.097Z,74.59
2018-03-20T09:00:50.531Z,74.46
2018-03-20T09:03:16.930Z,71.70
2018-03-20T09:05:43.354Z,71.24
2018-03-20T09:08:09.759Z,71.59
2018-03-20T09:10:36.153Z,71.90
2018-03-20T09:13:02.625Z,70.38
2018-03-20T09:15:29.073Z,71.16
2018-03-20T09:17:55.533Z,71.57
2018-03-20T09:20:22.596Z,71.74
2018-03-20T09:22:49.162Z,72.05
2018-03-20T09:25:15.663Z,71.40
2018-03-20T09:27:42.182Z,70.40
2018-03-20T09:30:08.573Z,70.77
2018-03-20T09:32:35.122Z,70.53
2018-03-20T09:35:01.534Z,69.82
2018-03-20T09:37:27.886Z,69.54
2018-03-20T09:39:54.363Z,69.82
2018-03-20T09:42:21.509Z,69.39
2018-03-20T09:44:48.059Z,69.45
2018-03-20T09:47:14.545Z,70.03
2018-03-20T09:49:40.995Z,69.83
2018-03-20T09:52:07.469Z,68.76
2018-03-20T09:54:33.938Z,69.72
2018-03-20T09:57:00.317Z,69.78
2018-03-20T09:59:26.700Z,69.82
2018-03-20T10:01:53.100Z,69.69
2018-03-20T10:04:19.512Z,68.71
2018-03-20T10:06:45.994Z,67.46
2018-03-20T10:09:12.401Z,66.78
2018-03-20T10:11:38.962Z,67.61
2018-03-20T10:14:05.410Z,67.55
2018-03-20T10:16:31.869Z,66.66
2018-03-20T10:18:58.519Z,66.60
2018-03-20T10:21:25.050Z,67.14
2018-03-20T10:23:51.657Z,65.21
2018-03-20T10:26:18.276Z,63.81
2018-03-20T10:28:44.829Z,64.54
2018-03-20T10:31:11.318Z,64.78
2018-03-20T10:33:37.782Z,67.19
2018-03-20T10:36:05.074Z,66.62
2018-03-20T10:38:31.706Z,67.14
2018-03-20T10:40:58.239Z,67.35
2018-03-20T10:43:24.660Z,66.19
2018-03-20T10:45:51.187Z,63.94
2018-03-20T10:48:17.731Z,63.62
2018-03-20T10:50:44.109Z,62.98
2018-03-20T10:53:11.649Z,63.83
2018-03-20T10:55:38.156Z,62.29
2018-03-20T10:58:04.634Z,63.29
2018-03-20T11:00:37.250Z,60.82
2018-03-20T11:03:07.866Z,61.53
2018-03-20T11:05:34.399Z,62.45
2018-03-20T11:08:01.027Z,62.95
2018-03-20T11:10:27.679Z,61.67
2018-03-20T11:12:54.310Z,61.52
2018-03-20T11:15:20.773Z,62.26
2018-03-20T11:17:47.195Z,61.33
2018-03-20T11:20:13.689Z,62.99
2018-03-20T11:22:40.099Z,61.87
2018-03-20T11:25:06.538Z,61.70
2018-03-20T11:27:32.997Z,59.62
2018-03-20T11:29:59.377Z,62.05
2018-03-20T11:32:25.826Z,61.29
2018-03-20T11:34:52.618Z,61.62
2018-03-20T11:37:19.386Z,61.29
2018-03-20T11:39:45.914Z,60.27
2018-03-20T11:42:12.347Z,60.17
2018-03-20T11:44:38.882Z,62.53
2018-03-20T11:47:05.294Z,61.22
2018-03-20T11:49:31.765Z,62.54
2018-03-20T11:51:58.183Z,62.43
2018-03-20T11:54:24.643Z,62.13
2018-03-20T11:56:51.134Z,63.00
2018-03-20T11:59:17.598Z,63.42
2018-03-20T12:01:44.066Z,62.66
2018-03-20T12:04:10.551Z,62.90
2018-03-20T12:06:37.398Z,62.98
2018-03-20T12:09:16.051Z,63.09
2018-03-20T12:11:42.587Z,63.06
2018-03-20T12:14:09.090Z,62.00
2018-03-20T12:16:35.604Z,62.91
2018-03-20T12:19:02.163Z,61.30
2018-03-20T12:21:28.763Z,60.32
2018-03-20T12:23:55.211Z,62.57
2018-03-20T12:26:22.381Z,61.97
2018-03-20T12:28:48.882Z,60.50
2018-03-20T12:31:15.388Z,61.95
2018-03-20T12:33:41.970Z,59.31
2018-03-20T12:36:08.427Z,60.82
2018-03-20T12:38:35.082Z,55.38
2018-03-20T12:41:01.591Z,55.25
2018-03-20T12:43:28.091Z,58.88
2018-03-20T12:45:54.521Z,57.14
2018-03-20T12:48:21.149Z,58.50
2018-03-20T12:50:47.710Z,59.47
2018-03-20T12:53:14.156Z,57.75
2018-03-20T12:55:40.730Z,57.37
2018-03-20T12:58:07.189Z,57.67
2018-03-20T13:00:33.893Z,60.78
2018-03-20T13:03:00.558Z,56.34
2018-03-20T13:05:27.034Z,56.51
2018-03-20T13:07:53.485Z,56.20
2018-03-20T13:10:20.146Z,55.90
2018-03-20T13:12:46.578Z,57.14
2018-03-20T13:15:12.970Z,56.73
2018-03-20T13:17:39.504Z,57.51
2018-03-20T13:20:06.045Z,59.87
2018-03-20T13:22:32.574Z,61.68
2018-03-20T13:24:59.038Z,57.14
2018-03-20T13:27:25.480Z,60.32
2018-03-20T13:29:51.878Z,58.78
2018-03-20T13:32:18.318Z,61.36
2018-03-20T13:34:44.827Z,58.32
2018-03-20T13:37:11.258Z,55.69
2018-03-20T13:39:37.694Z,57.23
2018-03-20T13:42:04.150Z,61.65
2018-03-20T13:44:30.613Z,55.70
2018-03-20T13:46:57.046Z,53.84
2018-03-20T13:49:23.566Z,59.93
2018-03-20T13:51:50.010Z,57.26
2018-03-20T13:54:16.522Z,55.88
2018-03-20T13:56:43.099Z,53.92
2018-03-20T13:59:09.546Z,53.73
2018-03-20T14:01:35.898Z,53.93
2018-03-20T14:04:02.377Z,54.00
2018-03-20T14:06:28.954Z,54.77
2018-03-20T14:08:55.448Z,55.42
2018-03-20T14:11:21.963Z,55.45
2018-03-20T14:13:48.418Z,54.82
2018-03-20T14:16:14.922Z,54.58
2018-03-20T14:18:41.347Z,54.11
2018-03-20T14:21:07.766Z,54.52
2018-03-20T14:23:34.234Z,56.35
2018-03-20T14:26:00.714Z,58.82
2018-03-20T14:28:27.147Z,58.80
2018-03-20T14:30:53.572Z,59.76
2018-03-20T14:33:19.986Z,57.87
2018-03-20T14:35:46.499Z,56.92
2018-03-20T14:38:12.892Z,57.14
2018-03-20T14:40:39.421Z,58.54
2018-03-20T14:43:05.821Z,56.38
2018-03-20T14:45:32.359Z,57.46
2018-03-20T14:47:58.964Z,62.78
2018-03-20T14:50:25.362Z,59.73
2018-03-20T14:52:51.761Z,58.27
2018-03-20T14:55:18.206Z,62.90
2018-03-20T14:57:44.554Z,62.56
2018-03-20T15:00:10.925Z,60.37
2018-03-20T15:02:37.530Z,60.44
2018-03-20T15:05:04.132Z,61.78
2018-03-20T15:07:30.542Z,61.73
2018-03-20T15:09:56.994Z,61.94
2018-03-20T15:12:23.431Z,61.78
2018-03-20T15:14:49.866Z,61.67
2018-03-20T15:17:16.274Z,61.25
2018-03-20T15:19:42.673Z,61.25
2018-03-20T15:22:09.226Z,63.08
2018-03-20T15:24:35.730Z,65.22
2018-03-20T15:27:02.356Z,64.54
2018-03-20T15:29:28.773Z,65.46
2018-03-20T15:31:55.222Z,66.69
2018-03-20T15:34:21.694Z,66.71
2018-03-20T15:36:48.071Z,66.84
2018-03-20T15:39:14.440Z,66.97
2018-03-20T15:41:40.895Z,66.82
2018-03-20T15:44:07.367Z,67.46
2018-03-20T15:46:33.742Z,67.05
2018-03-20T15:49:00.137Z,67.65
2018-03-20T15:51:26.613Z,67.67
2018-03-20T15:53:52.982Z,67.68
2018-03-20T15:56:19.573Z,67.38
2018-03-20T15:58:46.054Z,67.48
2018-03-20T16:01:12.453Z,67.59
2018-03-20T16:03:38.860Z,68.09
2018-03-20T16:06:05.450Z,67.85
2018-03-20T16:08:31.832Z,68.38
2018-03-20T16:10:58.234Z,68.30
2018-03-20T16:13:24.630Z,67.74
2018-03-20T16:15:51.015Z,68.35
2018-03-20T16:18:17.402Z,68.72
2018-03-20T16:20:43.830Z,69.05
2018-03-20T16:23:10.268Z,69.17
2018-03-20T16:25:36.717Z,69.04
2018-03-20T16:28:03.111Z,69.30
2018-03-20T16:30:29.557Z,69.42
2018-03-20T16:32:55.973Z,69.97
2018-03-20T16:35:22.409Z,69.95
2018-03-20T16:37:48.758Z,70.08
2018-03-20T16:40:15.208Z,70.12
2018-03-20T16:42:41.642Z,70.34
2018-03-20T16:45:07.982Z,70.48
2018-03-20T16:47:34.485Z,70.25
2018-03-20T16:50:00.958Z,70.40
2018-03-20T16:52:27.439Z,70.50
2018-03-20T16:54:53.870Z,70.44
2018-03-20T16:57:20.372Z,70.36
2018-03-20T16:59:46.734Z,70.67
2018-03-20T17:02:13.175Z,70.95
2018-03-20T17:04:39.569Z,70.97
2018-03-20T17:07:06.028Z,71.26
2018-03-20T17:09:32.454Z,71.34
2018-03-20T17:11:58.901Z,71.32
2018-03-20T17:14:25.325Z,71.24
2018-03-20T17:16:51.865Z,71.11
2018-03-20T17:19:18.308Z,71.21
2018-03-20T17:21:44.674Z,71.10
2018-03-20T17:24:11.031Z,71.29
2018-03-20T17:26:37.851Z,71.48
2018-03-20T17:29:04.273Z,71.25
2018-03-20T17:31:30.617Z,71.84
2018-03-20T17:33:57.053Z,70.92
2018-03-20T17:36:23.624Z,70.78
2018-03-20T17:38:50.102Z,70.75
2018-03-20T17:41:16.398Z,70.98
2018-03-20T17:43:42.814Z,71.00
2018-03-20T17:46:09.268Z,71.03
2018-03-20T17:48:35.870Z,71.17
2018-03-20T17:51:02.357Z,71.19
2018-03-20T17:53:28.805Z,71.10
2018-03-20T17:55:55.180Z,71.27
2018-03-20T17:58:21.621Z,71.24
2018-03-20T18:00:48.275Z,71.31
2018-03-20T18:03:14.660Z,71.58
2018-03-20T18:05:41.206Z,71.91
2018-03-20T18:08:07.574Z,72.05
2018-03-20T18:10:34.022Z,71.70
2018-03-20T18:13:00.430Z,73.07
2018-03-20T18:15:26.852Z,72.28
2018-03-20T18:17:53.316Z,72.24
2018-03-20T18:20:19.690Z,72.36
2018-03-20T18:22:46.099Z,72.09
2018-03-20T18:25:12.587Z,72.79
2018-03-20T18:27:38.974Z,72.42
2018-03-20T18:30:05.434Z,72.32
2018-03-20T18:32:31.826Z,74.88
2018-03-20T18:34:58.253Z,73.34
2018-03-20T18:37:24.626Z,72.44
2018-03-20T18:39:51.093Z,72.81
2018-03-20T18:42:17.478Z,72.73
2018-03-20T18:44:43.826Z,72.24
2018-03-20T18:47:11.045Z,72.73
2018-03-20T18:49:39.813Z,72.98
2018-03-20T18:52:07.548Z,73.08
2018-03-20T18:54:33.917Z,73.12
2018-03-20T18:57:00.314Z,73.16
2018-03-20T18:59:26.750Z,73.05
2018-03-20T19:01:53.183Z,73.09
2018-03-20T19:04:19.602Z,72.71
2018-03-20T19:06:45.985Z,72.37
2018-03-20T19:09:12.477Z,73.05
2018-03-20T19:11:38.937Z,73.56
2018-03-20T19:14:05.374Z,73.46
2018-03-20T19:16:31.824Z,73.16
2018-03-20T19:18:58.298Z,75.40
2018-03-20T19:21:24.693Z,74.23
2018-03-20T19:23:51.209Z,74.12
2018-03-20T19:26:17.630Z,74.45
2018-03-20T19:28:44.062Z,74.18
2018-03-20T19:31:10.457Z,73.98
2018-03-20T19:33:36.794Z,73.58
2018-03-20T19:36:03.214Z,73.82
2018-03-20T19:38:29.563Z,73.81
2018-03-20T19:40:56.238Z,74.10
2018-03-20T19:43:22.770Z,74.12
2018-03-20T19:45:49.141Z,74.69
2018-03-20T19:48:15.700Z,75.10
2018-03-20T19:50:42.088Z,74.79
2018-03-20T19:53:09.662Z,76.08
2018-03-20T19:55:36.086Z,75.04
2018-03-20T19:58:02.510Z,74.20
2018-03-20T20:00:29.171Z,74.43
2018-03-20T20:02:55.573Z,75.55
2018-03-20T20:05:21.937Z,75.08
2018-03-20T20:07:48.426Z,74.47
2018-03-20T20:10:14.811Z,74.32
2018-03-20T20:12:41.189Z,74.47
2018-03-20T20:15:07.750Z,74.72
2018-03-20T20:17:34.146Z,74.39
2018-03-20T20:20:00.844Z,74.38
2018-03-20T20:22:27.609Z,74.48
2018-03-20T20:24:54.065Z,74.03
2018-03-20T20:27:20.622Z,74.68
2018-03-20T20:29:46.990Z,74.68
2018-03-20T20:32:13.414Z,74.48
2018-03-20T20:34:39.866Z,74.45
2018-03-20T20:37:06.322Z,74.14
2018-03-20T20:39:32.798Z,73.95
2018-03-20T20:41:59.246Z,74.39
2018-03-20T20:44:25.817Z,74.51
2018-03-20T20:46:52.292Z,74.67
2018-03-20T20:49:18.667Z,74.19
2018-03-20T20:51:45.038Z,73.88
2018-03-20T20:54:11.427Z,74.01
2018-03-20T20:56:37.810Z,73.53
2018-03-20T20:59:04.154Z,74.29
2018-03-20T21:01:30.639Z,74.61
2018-03-20T21:03:57.046Z,77.32
2018-03-20T21:06:23.601Z,76.73
2018-03-20T21:08:49.967Z,74.69
2018-03-20T21:11:16.305Z,77.18
2018-03-20T21:13:42.712Z,74.85
2018-03-20T21:16:09.106Z,77.93
2018-03-20T21:18:35.510Z,75.03
2018-03-20T21:21:01.942Z,74.25
2018-03-20T21:23:28.374Z,73.55
2018-03-20T21:25:54.862Z,73.06
2018-03-20T21:28:21.288Z,73.87
2018-03-20T21:30:47.690Z,74.38
2018-03-20T21:33:14.072Z,74.23
2018-03-20T21:35:40.711Z,74.43
2018-03-20T21:38:07.051Z,74.42
2018-03-20T21:40:33.349Z,73.13
2018-03-20T21:42:59.745Z,73.87
2018-03-20T21:45:26.137Z,74.36
2018-03-20T21:47:52.520Z,74.41
2018-03-20T21:50:18.881Z,74.66
2018-03-20T21:52:45.218Z,74.26
2018-03-20T21:55:11.565Z,73.34
2018-03-20T21:57:38.025Z,74.17
2018-03-20T22:00:04.525Z,73.93
2018-03-20T22:02:30.830Z,74.23
2018-03-20T22:04:57.241Z,74.45
2018-03-20T22:07:23.682Z,74.23
2018-03-20T22:09:50.097Z,74.40
2018-03-20T22:12:16.428Z,74.96
2018-03-20T22:14:42.828Z,74.61
2018-03-20T22:17:09.131Z,75.06
2018-03-20T22:19:35.468Z,74.80
2018-03-20T22:22:01.804Z,73.69
2018-03-20T22:24:28.088Z,74.42
2018-03-20T22:26:54.379Z,75.23
2018-03-20T22:29:20.884Z,75.08
2018-03-20T22:31:47.279Z,75.59
2018-03-20T22:34:13.631Z,74.80
2018-03-20T22:36:40.030Z,75.18
2018-03-20T22:39:06.425Z,74.77
2018-03-20T22:41:32.723Z,74.92
2018-03-20T22:43:59.112Z,74.14
2018-03-20T22:46:25.457Z,74.93
2018-03-20T22:48:51.774Z,75.14
2018-03-20T22:51:18.123Z,75.21
2018-03-20T22:53:44.583Z,75.36
2018-03-20T22:56:10.891Z,74.42
2018-03-20T22:58:37.176Z,73.89
2018-03-20T23:01:03.523Z,75.23
2018-03-20T23:03:29.936Z,75.16
2018-03-20T23:05:56.208Z,74.27
2018-03-20T23:08:22.539Z,74.64
2018-03-20T23:10:48.879Z,74.34
2018-03-20T23:13:15.203Z,74.57
2018-03-20T23:15:41.583Z,74.21
2018-03-20T23:18:07.940Z,74.48
2018-03-20T23:20:34.252Z,74.52
2018-03-20T23:23:00.587Z,73.77
2018-03-20T23:25:26.995Z,74.35
2018-03-20T23:27:53.327Z,74.31
2018-03-20T23:30:19.783Z,74.89
2018-03-20T23:32:46.264Z,74.94
2018-03-20T23:35:12.604Z,74.54
2018-03-20T23:37:38.988Z,75.08
2018-03-20T23:40:05.485Z,74.59
2018-03-20T23:42:31.836Z,74.58
2018-03-20T23:44:58.151Z,74.68
2018-03-20T23:47:24.489Z,75.02
2018-03-20T23:49:51.126Z,74.25
2018-03-20T23:52:17.568Z,73.57
2018-03-20T23:54:43.935Z,74.18
2018-03-20T23:57:10.267Z,74.63
2018-03-20T23:59:36.591Z,74.92
